Terminal Aerodrome Forecast
Issued by NWS

Home | Current Version | Previous Version | Graphics & Text | Print | Product List | Glossary On
Versions: 1 2 3 4 5 6 7 8 9 10 11 12 13 14 15 16 17
000
FTUS45 KGGW 050358 AAA
TAFSDY
TAF AMD
KSDY 050358Z 0504/0524 17006KT P6SM BKN080
     FM050500 20006KT P6SM VCSH BKN015
     FM050600 24008KT P6SM BKN025
     FM050900 28013G21KT P6SM VCSH BKN015
     FM051200 30016G24KT 2SM -SN OVC010
     FM051800 30017KT P6SM OVC010=

USA.gov is the U.S. government's official web portal to all federal, state and local government web resources and services.